Betty Ann — WDF5049 — position and weather

sailwx.info

Track history (hours):
 
Tides and Currents Weather Stations Pressure Air Temp Water Temp Dewpoint Dewpoint Depression Visibility Wind Speed Wind Dir Waves Ship Positions

Betty Ann

Owner: Inland Dredging Co LLC, Mt. Vernon, AL. More information available from US FCC via Universal Licensing System and Coast Guard Vessel Documentation Center.

Last reported at 2014-Oct-06 05:16 UTC. Time now 2014-Oct-22 15:29 UTC.
Position N 29°60' W 091°16'.
Warning: this ship's position is 16 days out of date.

Length 16 m; draft 2 m.

Type: Towing. MMSI: 367458770.

Date/timePositionNaut miles runAvg speedWind from/ knotsBaromVisibWave heightAir tempDewpointWater temp
2014-Oct-06 05:16N 29°60' W 091°16'2 2.6
2014-Oct-06 04:33N 29°58' W 091°16'4 2.6
2014-Oct-06 03:09N 29°55' W 091°14'2 3.0
2014-Oct-06 02:33N 29°53' W 091°13'3 3.2
2014-Oct-06 01:33N 29°50' W 091°11'1 0.6
2014-Oct-06 00:32N 29°50' W 091°11'4 3.7
2014-Oct-05 23:33N 29°46' W 091°11'3 3.0
2014-Oct-05 22:33N 29°43' W 091°12'3 2.6
2014-Oct-05 21:33N 29°41' W 091°13'3 3.2
2014-Oct-05 20:33N 29°39' W 091°16'3 2.6
2014-Oct-05 19:33N 29°38' W 091°19'4 3.8
2014-Oct-05 18:33N 29°39' W 091°23'4 3.4
2014-Oct-05 17:31N 29°40' W 091°27'11 3.5
2014-Oct-05 14:29N 29°46' W 091°37'4 4.3
2014-Oct-05 13:33N 29°46' W 091°42'  
Track history (hours):
 
Tides and Currents Weather Stations Pressure Air Temp Water Temp Dewpoint Dewpoint Depression Visibility Wind Speed Wind Dir Waves Ship Positions

Betty Ann

Owner: Inland Dredging Co LLC, Mt. Vernon, AL. More information available from US FCC via Universal Licensing System and Coast Guard Vessel Documentation Center.

Last reported at 2014-Oct-06 05:16 UTC. Time now 2014-Oct-22 15:29 UTC.
Position N 29°60' W 091°16'.
Warning: this ship's position is 16 days out of date.

Length 16 m; draft 2 m.

Type: Towing. MMSI: 367458770.

Date/timePositionNaut miles runAvg speedWind from/ knotsBaromVisibWave heightAir tempDewpointWater temp
2014-Oct-06 05:16N 29°60' W 091°16'2 2.6
2014-Oct-06 04:33N 29°58' W 091°16'4 2.6
2014-Oct-06 03:09N 29°55' W 091°14'2 3.0
2014-Oct-06 02:33N 29°53' W 091°13'3 3.2
2014-Oct-06 01:33N 29°50' W 091°11'1 0.6
2014-Oct-06 00:32N 29°50' W 091°11'4 3.7
2014-Oct-05 23:33N 29°46' W 091°11'3 3.0
2014-Oct-05 22:33N 29°43' W 091°12'3 2.6
2014-Oct-05 21:33N 29°41' W 091°13'3 3.2
2014-Oct-05 20:33N 29°39' W 091°16'3 2.6
2014-Oct-05 19:33N 29°38' W 091°19'4 3.8
2014-Oct-05 18:33N 29°39' W 091°23'4 3.4
2014-Oct-05 17:31N 29°40' W 091°27'11 3.5
2014-Oct-05 14:29N 29°46' W 091°37'4 4.3
2014-Oct-05 13:33N 29°46' W 091°42'  

Dump ship's entire track history